Time;durP1;ratioP1;P1;durP2;ratioP2;P2;SDS_P1;SDS_P2;PMS_P1;PMS_P2;Temp;Humidity;BMP_temperature;BMP_pressure;BME280_temperature;BME280_humidity;BME280_pressure;Samples;Min_cycle;Max_cycle;Signal;HPM_P1;HPM_P2
2023/07/06 00:02:21;;;;;;;;;;;12.30;99.90;;;;;;5093534;28;19970;-76
2023/07/06 00:04:46;;;;;;;;;;;12.30;99.90;;;;;;5065774;28;19931;-77
2023/07/06 00:07:20;;;;;;;;;;;12.30;99.90;;;;;;5097809;28;19924;-77
2023/07/06 00:09:48;;;;;;;;;;;12.40;99.90;;;;;;5096500;28;19920;-77
2023/07/06 00:12:14;;;;;;;;;;;12.30;99.90;;;;;;5089166;28;20366;-76
2023/07/06 00:14:40;;;;;;;;;;;12.30;99.90;;;;;;5111774;28;20023;-77
2023/07/06 00:17:12;;;;;;;;;;;12.30;99.90;;;;;;5071962;28;20007;-77
2023/07/06 00:19:38;;;;;;;;;;;12.30;99.90;;;;;;5095219;28;20403;-77
2023/07/06 00:22:04;;;;;;;;;;;12.20;99.90;;;;;;5101334;28;19924;-77
2023/07/06 00:24:30;;;;;;;;;;;12.30;99.90;;;;;;5080730;28;20027;-76
2023/07/06 00:26:56;;;;;;;;;;;12.20;99.90;;;;;;5085428;28;19925;-76
2023/07/06 00:29:22;;;;;;;;;;;12.20;99.90;;;;;;5088854;28;20336;-76
2023/07/06 00:32:04;;;;;;;;;;;12.20;99.90;;;;;;5089757;28;20743;-76
2023/07/06 00:34:33;;;;;;;;;;;12.20;99.90;;;;;;5091992;28;19925;-76
2023/07/06 00:36:59;;;;;;;;;;;12.20;99.90;;;;;;5096639;28;19931;-76
2023/07/06 00:39:26;;;;;;;;;;;12.20;99.90;;;;;;5094842;28;19924;-77
2023/07/06 00:41:52;;;;;;;;;;;12.20;99.90;;;;;;5092574;28;19924;-77
2023/07/06 00:44:36;;;;;;;;;;;12.20;99.90;;;;;;5091219;28;20382;-77
2023/07/06 00:47:02;;;;;;;;;;;12.20;99.90;;;;;;5091774;28;20395;-77
2023/07/06 00:49:28;;;;;;;;;;;12.10;99.90;;;;;;5102897;28;19927;-76
2023/07/06 00:51:53;;;;;;;;;;;12.10;99.90;;;;;;5091704;28;19976;-77
2023/07/06 00:54:19;;;;;;;;;;;12.10;99.90;;;;;;5097975;28;19928;-76
2023/07/06 00:56:46;;;;;;;;;;;12.10;99.90;;;;;;5106129;28;19925;-77
2023/07/06 00:59:15;;;;;;;;;;;12.10;99.90;;;;;;5094218;28;20035;-76
2023/07/06 01:01:43;;;;;;;;;;;12.10;99.90;;;;;;5090589;28;20281;-76
2023/07/06 01:04:11;;;;;;;;;;;12.10;99.90;;;;;;5091886;28;20020;-75
2023/07/06 01:06:40;;;;;;;;;;;12.10;99.90;;;;;;5091192;28;20352;-77
2023/07/06 01:09:07;;;;;;;;;;;12.00;99.90;;;;;;5081798;28;19924;-77
2023/07/06 01:11:35;;;;;;;;;;;12.10;99.90;;;;;;5087668;28;19923;-78
2023/07/06 01:14:00;;;;;;;;;;;12.00;99.90;;;;;;5089161;28;20339;-77
2023/07/06 01:16:26;;;;;;;;;;;12.00;99.90;;;;;;5092884;28;19981;-77
2023/07/06 01:19:07;;;;;;;;;;;12.00;99.90;;;;;;5095980;28;19963;-78
2023/07/06 01:21:39;;;;;;;;;;;12.00;99.90;;;;;;5095911;28;19926;-76
2023/07/06 01:24:20;;;;;;;;;;;12.00;99.90;;;;;;5084200;28;20423;-78
2023/07/06 01:26:45;;;;;;;;;;;12.00;99.90;;;;;;5088768;28;19924;-77
2023/07/06 01:29:14;;;;;;;;;;;11.90;99.90;;;;;;5086308;28;19931;-78
2023/07/06 01:31:40;;;;;;;;;;;12.00;99.90;;;;;;5087198;28;19932;-77
2023/07/06 01:34:11;;;;;;;;;;;12.00;99.90;;;;;;5096213;28;19968;-77
2023/07/06 01:36:40;;;;;;;;;;;12.00;99.90;;;;;;5090388;28;19925;-77
2023/07/06 01:39:18;;;;;;;;;;;12.00;99.90;;;;;;5095041;28;19993;-76
2023/07/06 01:41:45;;;;;;;;;;;11.90;99.90;;;;;;5093261;28;19929;-76
2023/07/06 01:44:12;;;;;;;;;;;12.00;99.90;;;;;;5088326;28;19924;-78
2023/07/06 01:46:46;;;;;;;;;;;11.90;99.90;;;;;;5080641;28;19928;-78
2023/07/06 01:49:12;;;;;;;;;;;12.00;99.90;;;;;;5107589;28;19924;-77
2023/07/06 01:51:58;;;;;;;;;;;12.00;99.90;;;;;;5088670;28;19928;-77
2023/07/06 01:54:29;;;;;;;;;;;12.00;99.90;;;;;;5086589;28;19924;-78
2023/07/06 01:56:59;;;;;;;;;;;12.00;99.90;;;;;;5085256;28;19928;-78
2023/07/06 01:59:28;;;;;;;;;;;12.00;99.90;;;;;;5073191;28;19928;-78
2023/07/06 02:02:00;;;;;;;;;;;12.00;99.90;;;;;;5099807;28;19928;-77
2023/07/06 02:04:28;;;;;;;;;;;12.00;99.90;;;;;;5102990;27;19931;-77
2023/07/06 02:06:55;;;;;;;;;;;12.00;99.90;;;;;;5091052;28;19924;-76
2023/07/06 02:09:21;;;;;;;;;;;12.10;99.90;;;;;;5083161;28;20404;-76
2023/07/06 02:11:47;;;;;;;;;;;12.10;99.90;;;;;;5094627;28;19925;-78
2023/07/06 02:14:12;;;;;;;;;;;12.10;99.90;;;;;;5097850;28;19924;-77
2023/07/06 02:16:38;;;;;;;;;;;12.10;99.90;;;;;;5099732;28;19928;-77
2023/07/06 02:19:04;;;;;;;;;;;12.20;99.90;;;;;;5093272;28;19932;-77
2023/07/06 02:21:31;;;;;;;;;;;12.20;99.90;;;;;;5085643;28;19931;-77
2023/07/06 02:23:57;;;;;;;;;;;12.20;99.90;;;;;;5104305;28;19963;-77
2023/07/06 02:26:22;;;;;;;;;;;12.20;99.90;;;;;;5093352;28;19974;-76
2023/07/06 02:28:48;;;;;;;;;;;12.20;99.90;;;;;;5093146;28;19963;-76
2023/07/06 02:31:13;;;;;;;;;;;12.20;99.90;;;;;;5096531;28;19931;-76
2023/07/06 02:33:39;;;;;;;;;;;12.30;99.90;;;;;;5094971;28;19945;-77
2023/07/06 02:36:04;;;;;;;;;;;12.30;99.90;;;;;;5100622;28;20389;-77
2023/07/06 02:38:30;;;;;;;;;;;12.30;99.90;;;;;;5098179;28;20288;-77
2023/07/06 02:40:57;;;;;;;;;;;12.30;99.90;;;;;;5118005;27;19978;-77
2023/07/06 02:43:24;;;;;;;;;;;12.30;99.90;;;;;;5102970;28;19971;-77
2023/07/06 02:45:50;;;;;;;;;;;12.30;99.90;;;;;;5106833;28;20403;-77
2023/07/06 02:48:17;;;;;;;;;;;12.40;99.90;;;;;;5105057;28;20347;-77
2023/07/06 02:50:52;;;;;;;;;;;12.40;99.90;;;;;;5093521;28;19924;-77
2023/07/06 02:53:18;;;;;;;;;;;12.30;99.90;;;;;;5101428;28;20443;-78
2023/07/06 02:55:45;;;;;;;;;;;12.40;99.90;;;;;;5089237;28;19924;-78
2023/07/06 02:58:11;;;;;;;;;;;12.30;99.90;;;;;;5089826;28;19931;-78
2023/07/06 03:00:37;;;;;;;;;;;12.40;99.90;;;;;;5088085;28;19932;-77
2023/07/06 03:03:07;;;;;;;;;;;12.40;99.90;;;;;;5089910;28;20007;-76
2023/07/06 03:05:35;;;;;;;;;;;12.30;99.90;;;;;;5100177;28;19935;-77
2023/07/06 03:08:01;;;;;;;;;;;12.30;99.90;;;;;;5103913;28;19924;-77
2023/07/06 03:10:27;;;;;;;;;;;12.30;99.90;;;;;;5099848;28;19925;-77
2023/07/06 03:12:54;;;;;;;;;;;12.30;99.90;;;;;;5093734;28;19933;-77
2023/07/06 03:15:19;;;;;;;;;;;12.30;99.90;;;;;;5099999;28;20392;-77
2023/07/06 03:17:48;;;;;;;;;;;12.30;99.90;;;;;;5094990;28;19924;-77
2023/07/06 03:20:14;;;;;;;;;;;12.30;99.90;;;;;;5103522;28;20389;-77
2023/07/06 03:22:48;;;;;;;;;;;12.30;99.90;;;;;;5090833;28;20007;-77
2023/07/06 03:25:40;;;;;;;;;;;12.20;99.90;;;;;;5097088;28;20015;-77
2023/07/06 03:28:05;;;;;;;;;;;12.20;99.90;;;;;;5093692;28;19950;-77
2023/07/06 03:30:31;;;;;;;;;;;12.20;99.90;;;;;;5096192;28;19928;-77
2023/07/06 03:32:59;;;;;;;;;;;12.10;99.90;;;;;;5101231;28;19931;-77
2023/07/06 03:35:24;;;;;;;;;;;12.10;99.90;;;;;;5095779;28;20299;-76
2023/07/06 03:37:50;;;;;;;;;;;12.10;99.90;;;;;;5096742;28;19949;-77
2023/07/06 03:40:16;;;;;;;;;;;12.10;99.90;;;;;;5098105;28;20014;-77
2023/07/06 03:42:44;;;;;;;;;;;12.10;99.90;;;;;;5089115;28;19924;-77
2023/07/06 03:45:13;;;;;;;;;;;12.10;99.90;;;;;;5098656;28;19923;-76
2023/07/06 03:47:39;;;;;;;;;;;12.10;99.90;;;;;;5097484;28;19928;-78
2023/07/06 03:50:08;;;;;;;;;;;12.10;99.90;;;;;;5096414;28;19924;-77
2023/07/06 03:52:37;;;;;;;;;;;12.10;99.90;;;;;;5097557;28;19924;-77
2023/07/06 03:55:04;;;;;;;;;;;12.20;99.90;;;;;;5093099;28;19924;-78
2023/07/06 03:57:30;;;;;;;;;;;12.20;99.90;;;;;;5102736;28;19931;-76
2023/07/06 03:59:56;;;;;;;;;;;12.20;99.90;;;;;;5108190;27;19924;-77
2023/07/06 04:02:22;;;;;;;;;;;12.20;99.90;;;;;;5098809;28;19931;-76
2023/07/06 04:04:48;;;;;;;;;;;12.30;99.90;;;;;;5094602;28;19929;-78
2023/07/06 04:07:14;;;;;;;;;;;12.30;99.90;;;;;;5093460;28;19931;-78
2023/07/06 04:09:39;;;;;;;;;;;12.30;99.90;;;;;;5090780;28;19924;-78
2023/07/06 04:12:06;;;;;;;;;;;12.40;99.90;;;;;;5097401;28;19928;-77
2023/07/06 04:14:31;;;;;;;;;;;12.40;99.90;;;;;;5093919;28;19971;-77
2023/07/06 04:16:57;;;;;;;;;;;12.50;99.90;;;;;;5101368;28;19924;-77
2023/07/06 04:19:23;;;;;;;;;;;12.50;99.90;;;;;;5096392;28;19924;-78
2023/07/06 04:21:49;;;;;;;;;;;12.50;99.90;;;;;;5097164;28;19928;-77
2023/07/06 04:24:16;;;;;;;;;;;12.60;99.90;;;;;;5107054;28;19946;-77
2023/07/06 04:26:42;;;;;;;;;;;12.60;99.90;;;;;;5105714;28;19946;-77
2023/07/06 04:29:09;;;;;;;;;;;12.60;99.90;;;;;;5097435;28;19924;-77
2023/07/06 04:31:39;;;;;;;;;;;12.70;99.90;;;;;;5095067;28;19924;-78
2023/07/06 04:34:05;;;;;;;;;;;12.70;99.90;;;;;;5089184;28;19928;-77
2023/07/06 04:36:31;;;;;;;;;;;12.80;99.90;;;;;;5080977;28;19924;-77
2023/07/06 04:38:59;;;;;;;;;;;12.80;99.90;;;;;;5092611;28;19924;-76
2023/07/06 04:41:25;;;;;;;;;;;12.80;99.90;;;;;;5091199;28;20011;-77
2023/07/06 04:43:52;;;;;;;;;;;12.90;99.90;;;;;;5092465;28;19974;-77
2023/07/06 04:46:20;;;;;;;;;;;12.90;99.90;;;;;;5094063;28;19924;-78
2023/07/06 04:48:46;;;;;;;;;;;13.00;99.90;;;;;;5088796;28;19919;-77
2023/07/06 04:51:12;;;;;;;;;;;13.00;99.90;;;;;;5084001;28;19931;-77
2023/07/06 04:53:38;;;;;;;;;;;13.00;99.90;;;;;;5087433;28;19928;-77
2023/07/06 04:56:06;;;;;;;;;;;13.00;99.90;;;;;;5097274;28;21605;-78
2023/07/06 04:58:31;;;;;;;;;;;13.10;99.90;;;;;;5094374;28;19923;-76
2023/07/06 05:00:57;;;;;;;;;;;13.00;99.90;;;;;;5095060;28;19924;-79
2023/07/06 05:03:23;;;;;;;;;;;13.00;99.90;;;;;;5098524;28;19924;-78
2023/07/06 05:05:49;;;;;;;;;;;13.00;99.90;;;;;;5088471;28;20578;-78
2023/07/06 05:08:16;;;;;;;;;;;13.10;99.90;;;;;;5092643;28;20381;-78
2023/07/06 05:10:47;;;;;;;;;;;13.10;99.90;;;;;;5090702;28;20012;-79
2023/07/06 05:13:13;;;;;;;;;;;13.20;99.90;;;;;;5088515;28;20070;-79
2023/07/06 05:15:39;;;;;;;;;;;13.30;99.90;;;;;;5085384;28;19931;-78
2023/07/06 05:18:06;;;;;;;;;;;13.50;99.90;;;;;;5071493;28;20381;-77
2023/07/06 05:20:32;;;;;;;;;;;13.60;99.90;;;;;;5095412;28;20097;-78
2023/07/06 05:22:58;;;;;;;;;;;13.70;99.90;;;;;;5097073;28;19963;-77
2023/07/06 05:25:23;;;;;;;;;;;13.80;99.90;;;;;;5096571;28;19924;-78
2023/07/06 05:27:49;;;;;;;;;;;13.90;99.90;;;;;;5086872;28;20058;-78
2023/07/06 05:30:15;;;;;;;;;;;14.00;99.90;;;;;;5095933;28;20378;-79
2023/07/06 05:32:41;;;;;;;;;;;14.20;99.90;;;;;;5095578;28;19912;-78
2023/07/06 05:35:07;;;;;;;;;;;14.30;99.90;;;;;;5094546;28;19976;-76
2023/07/06 05:37:33;;;;;;;;;;;14.40;99.90;;;;;;5096544;28;19977;-76
2023/07/06 05:39:59;;;;;;;;;;;14.40;99.90;;;;;;5088927;28;19975;-77
2023/07/06 05:42:25;;;;;;;;;;;14.50;99.90;;;;;;5092171;28;19933;-78
2023/07/06 05:44:51;;;;;;;;;;;14.50;99.90;;;;;;5097801;28;19931;-78
2023/07/06 05:47:16;;;;;;;;;;;14.50;99.90;;;;;;5088918;28;20469;-77
2023/07/06 05:49:42;;;;;;;;;;;14.60;99.90;;;;;;5079452;28;19990;-78
2023/07/06 05:52:08;;;;;;;;;;;14.70;99.90;;;;;;5073105;28;19978;-79
2023/07/06 05:54:33;;;;;;;;;;;14.80;99.90;;;;;;5098885;28;19923;-79
2023/07/06 05:57:00;;;;;;;;;;;14.90;99.90;;;;;;5096149;28;19932;-79
2023/07/06 05:59:26;;;;;;;;;;;15.00;99.90;;;;;;5095348;28;19976;-79
2023/07/06 06:01:52;;;;;;;;;;;15.10;99.90;;;;;;5106555;28;19924;-78
2023/07/06 06:04:18;;;;;;;;;;;15.20;99.90;;;;;;5090278;28;20305;-78
2023/07/06 06:06:48;;;;;;;;;;;15.40;99.90;;;;;;5117499;28;20305;-78
2023/07/06 06:09:14;;;;;;;;;;;15.50;99.90;;;;;;5092030;28;19925;-78
2023/07/06 06:11:40;;;;;;;;;;;15.80;99.90;;;;;;5099274;28;19968;-78
2023/07/06 06:14:05;;;;;;;;;;;16.00;99.90;;;;;;5098246;28;19924;-79
2023/07/06 06:16:32;;;;;;;;;;;16.20;99.90;;;;;;5090458;28;19936;-79
2023/07/06 06:19:00;;;;;;;;;;;16.50;99.90;;;;;;5084601;28;19971;-79
2023/07/06 06:21:30;;;;;;;;;;;16.70;99.90;;;;;;5117437;28;19930;-79
2023/07/06 06:23:57;;;;;;;;;;;17.00;99.90;;;;;;5101678;28;19924;-78
2023/07/06 06:26:24;;;;;;;;;;;17.00;99.90;;;;;;5099001;28;19908;-78
2023/07/06 06:28:50;;;;;;;;;;;17.00;99.90;;;;;;5093418;28;19924;-77
2023/07/06 06:31:16;;;;;;;;;;;17.00;99.90;;;;;;5095032;28;19924;-77
2023/07/06 06:33:41;;;;;;;;;;;17.00;99.90;;;;;;5104496;28;19932;-78
2023/07/06 06:36:08;;;;;;;;;;;17.00;99.90;;;;;;5094268;28;19931;-78
2023/07/06 06:38:34;;;;;;;;;;;17.10;99.90;;;;;;5105838;28;19924;-78
2023/07/06 06:41:03;;;;;;;;;;;17.10;99.90;;;;;;5103194;28;19925;-79
2023/07/06 06:43:29;;;;;;;;;;;17.10;99.90;;;;;;5101805;28;19990;-80
2023/07/06 06:45:54;;;;;;;;;;;17.20;99.90;;;;;;5090622;28;19925;-78
2023/07/06 06:48:20;;;;;;;;;;;17.20;99.90;;;;;;5077051;28;19983;-78
2023/07/06 06:50:45;;;;;;;;;;;16.90;99.90;;;;;;5095250;28;19924;-77
2023/07/06 06:53:11;;;;;;;;;;;17.40;99.90;;;;;;5116259;27;19930;-78
2023/07/06 06:55:37;;;;;;;;;;;17.40;99.90;;;;;;5097360;28;19924;-78
2023/07/06 06:58:03;;;;;;;;;;;17.50;99.90;;;;;;5100780;28;19966;-77
2023/07/06 07:00:29;;;;;;;;;;;17.60;99.90;;;;;;5097603;28;19962;-77
2023/07/06 07:02:55;;;;;;;;;;;17.80;99.90;;;;;;5100607;28;19931;-78
2023/07/06 07:05:20;;;;;;;;;;;17.90;99.90;;;;;;5081199;28;20016;-79
2023/07/06 07:07:50;;;;;;;;;;;18.00;99.90;;;;;;5098336;28;19924;-80
2023/07/06 07:10:16;;;;;;;;;;;18.10;99.90;;;;;;5092397;28;19924;-77
2023/07/06 07:12:42;;;;;;;;;;;18.20;99.90;;;;;;5093956;28;20025;-77
2023/07/06 07:15:11;;;;;;;;;;;18.30;99.90;;;;;;5099545;28;20658;-79
2023/07/06 07:17:37;;;;;;;;;;;18.40;99.90;;;;;;5112103;28;19924;-78
2023/07/06 07:20:05;;;;;;;;;;;18.40;99.90;;;;;;5106566;28;20392;-79
2023/07/06 07:22:30;;;;;;;;;;;18.50;99.90;;;;;;5078661;28;19989;-78
2023/07/06 07:24:58;;;;;;;;;;;18.60;99.90;;;;;;5097977;28;19929;-80
2023/07/06 07:27:25;;;;;;;;;;;18.60;99.90;;;;;;5096931;28;20277;-78
2023/07/06 07:29:51;;;;;;;;;;;18.80;99.90;;;;;;5093152;28;19932;-79
2023/07/06 07:32:20;;;;;;;;;;;18.90;99.90;;;;;;5100434;28;19935;-78
2023/07/06 07:34:50;;;;;;;;;;;19.00;99.90;;;;;;5101234;28;20287;-79
2023/07/06 07:37:19;;;;;;;;;;;19.00;99.90;;;;;;5086521;28;19924;-79
2023/07/06 07:39:48;;;;;;;;;;;19.00;99.90;;;;;;5098090;28;19969;-79
2023/07/06 07:42:14;;;;;;;;;;;19.00;99.90;;;;;;5100962;28;20011;-79
2023/07/06 07:44:47;;;;;;;;;;;19.10;99.90;;;;;;5101265;28;20392;-79
2023/07/06 07:47:15;;;;;;;;;;;19.10;99.90;;;;;;5101662;28;19924;-79
2023/07/06 07:49:41;;;;;;;;;;;19.20;99.90;;;;;;5101227;28;19924;-79
2023/07/06 07:52:12;;;;;;;;;;;19.30;99.90;;;;;;5078668;28;19947;-79
2023/07/06 07:54:38;;;;;;;;;;;19.30;99.90;;;;;;5084564;28;20298;-79
2023/07/06 07:57:04;;;;;;;;;;;19.40;99.90;;;;;;5083350;28;20406;-79
2023/07/06 07:59:29;;;;;;;;;;;19.50;99.90;;;;;;5085537;28;19986;-78
2023/07/06 08:01:56;;;;;;;;;;;19.60;99.90;;;;;;5083885;28;19979;-77
2023/07/06 08:04:21;;;;;;;;;;;19.70;99.90;;;;;;5087761;28;19924;-78
2023/07/06 08:06:47;;;;;;;;;;;19.80;99.90;;;;;;5098949;28;19930;-79
2023/07/06 08:09:13;;;;;;;;;;;20.00;99.90;;;;;;5082130;28;19931;-80
2023/07/06 08:11:41;;;;;;;;;;;20.20;99.90;;;;;;5112911;28;19923;-79
2023/07/06 08:14:10;;;;;;;;;;;20.20;99.90;;;;;;5121074;28;20018;-79
2023/07/06 08:16:35;;;;;;;;;;;20.40;99.90;;;;;;5095563;28;20289;-79
2023/07/06 08:19:03;;;;;;;;;;;20.40;99.90;;;;;;5089528;28;19924;-78
2023/07/06 08:21:29;;;;;;;;;;;20.50;99.90;;;;;;5096609;28;19928;-80
2023/07/06 08:23:57;;;;;;;;;;;20.60;99.90;;;;;;5102436;28;19963;-78
2023/07/06 08:26:23;;;;;;;;;;;20.60;99.90;;;;;;5100186;28;19989;-79
2023/07/06 08:28:49;;;;;;;;;;;20.50;99.90;;;;;;5101290;28;19930;-80
2023/07/06 08:31:17;;;;;;;;;;;20.30;99.90;;;;;;5091543;28;19920;-79
2023/07/06 08:33:43;;;;;;;;;;;20.10;99.90;;;;;;5106933;28;19924;-77
2023/07/06 08:36:09;;;;;;;;;;;19.90;99.90;;;;;;5107758;28;19929;-79
2023/07/06 08:38:38;;;;;;;;;;;19.70;99.90;;;;;;5106124;28;19923;-78
2023/07/06 08:41:10;;;;;;;;;;;19.70;99.90;;;;;;5103191;28;19924;-78
2023/07/06 08:43:36;;;;;;;;;;;19.70;99.90;;;;;;5122058;27;20007;-79
2023/07/06 08:46:04;;;;;;;;;;;19.70;99.90;;;;;;5098819;28;19932;-79
2023/07/06 08:48:31;;;;;;;;;;;19.60;99.90;;;;;;5105510;28;20369;-77
2023/07/06 08:51:12;;;;;;;;;;;19.60;99.90;;;;;;5103673;28;19928;-78
2023/07/06 08:53:43;;;;;;;;;;;19.40;99.90;;;;;;5085802;28;19932;-78
2023/07/06 08:56:11;;;;;;;;;;;19.40;99.90;;;;;;5103300;28;19971;-78
2023/07/06 08:58:41;;;;;;;;;;;19.20;99.90;;;;;;5099620;28;20036;-78
2023/07/06 09:01:16;;;;;;;;;;;19.20;99.90;;;;;;5094564;28;19930;-78
2023/07/06 09:03:44;;;;;;;;;;;19.10;99.90;;;;;;5100003;28;20286;-78
2023/07/06 09:06:11;;;;;;;;;;;19.10;99.90;;;;;;5091552;28;20332;-79
2023/07/06 09:08:37;;;;;;;;;;;19.30;99.90;;;;;;5100348;28;20018;-79
2023/07/06 09:11:05;;;;;;;;;;;19.40;99.90;;;;;;5096042;28;19968;-79
2023/07/06 09:13:41;;;;;;;;;;;19.40;99.90;;;;;;5080388;28;19970;-79
2023/07/06 09:16:10;;;;;;;;;;;19.50;99.90;;;;;;5097527;28;19924;-78
2023/07/06 09:18:36;;;;;;;;;;;19.50;99.90;;;;;;5100127;28;20007;-79
2023/07/06 09:21:02;;;;;;;;;;;19.50;99.90;;;;;;5098414;28;19930;-79
2023/07/06 09:23:30;;;;;;;;;;;19.50;99.90;;;;;;5099031;28;19976;-78
2023/07/06 09:25:56;;;;;;;;;;;19.50;99.90;;;;;;5099651;28;20393;-77
2023/07/06 09:28:29;;;;;;;;;;;19.70;99.90;;;;;;5099011;28;19932;-79
2023/07/06 09:31:07;;;;;;;;;;;20.00;99.90;;;;;;5101326;28;19924;-79
2023/07/06 09:33:33;;;;;;;;;;;20.20;99.90;;;;;;5101383;28;19924;-79
2023/07/06 09:35:58;;;;;;;;;;;20.40;99.90;;;;;;5098872;28;19938;-81
2023/07/06 09:38:25;;;;;;;;;;;20.50;99.90;;;;;;5100903;28;19946;-80
2023/07/06 09:40:52;;;;;;;;;;;20.60;99.90;;;;;;5100290;28;20339;-79
2023/07/06 09:43:21;;;;;;;;;;;20.60;99.90;;;;;;5103767;28;19969;-82
2023/07/06 09:45:48;;;;;;;;;;;20.60;99.90;;;;;;5102190;28;19930;-79
2023/07/06 09:48:36;;;;;;;;;;;20.60;99.90;;;;;;5092815;28;19963;-78
2023/07/06 09:51:11;;;;;;;;;;;20.50;99.90;;;;;;5099111;28;19934;-78
2023/07/06 09:54:00;;;;;;;;;;;20.70;99.90;;;;;;5092820;28;19924;-78
2023/07/06 09:56:28;;;;;;;;;;;20.70;99.90;;;;;;5081698;28;19924;-78
2023/07/06 09:58:53;;;;;;;;;;;20.70;99.90;;;;;;5089580;28;20289;-79
2023/07/06 10:01:31;;;;;;;;;;;20.70;99.90;;;;;;5086066;28;19930;-78
2023/07/06 10:04:15;;;;;;;;;;;20.70;99.90;;;;;;5087814;28;19924;-79
2023/07/06 10:06:50;;;;;;;;;;;20.60;99.90;;;;;;5078466;28;20014;-78
2023/07/06 10:09:18;;;;;;;;;;;20.60;99.90;;;;;;5090252;28;19924;-80
2023/07/06 10:11:53;;;;;;;;;;;20.50;99.90;;;;;;5080977;28;19971;-78
2023/07/06 10:14:25;;;;;;;;;;;20.40;99.90;;;;;;5074515;28;20362;-78
2023/07/06 10:16:57;;;;;;;;;;;20.40;99.90;;;;;;5094167;28;20281;-78
2023/07/06 10:19:32;;;;;;;;;;;20.50;99.90;;;;;;5109218;28;19933;-78
2023/07/06 10:22:27;;;;;;;;;;;20.40;99.50;;;;;;5104381;28;20015;-77
2023/07/06 10:25:10;;;;;;;;;;;20.40;99.80;;;;;;5028136;28;19958;-76
2023/07/06 10:27:39;;;;;;;;;;;20.70;99.90;;;;;;5102017;28;20049;-79
2023/07/06 10:30:08;;;;;;;;;;;20.80;98.50;;;;;;5096428;28;19924;-79
2023/07/06 10:32:42;;;;;;;;;;;20.80;98.90;;;;;;5092528;28;19971;-78
2023/07/06 10:35:14;;;;;;;;;;;20.60;99.50;;;;;;5083033;28;19934;-77
2023/07/06 10:37:41;;;;;;;;;;;20.50;99.70;;;;;;5092229;28;19908;-77
2023/07/06 10:40:08;;;;;;;;;;;20.50;99.90;;;;;;5083267;28;20019;-77
2023/07/06 10:42:33;;;;;;;;;;;20.60;99.80;;;;;;5091654;28;19924;-79
2023/07/06 10:45:01;;;;;;;;;;;20.70;99.90;;;;;;5105156;28;19924;-81
2023/07/06 10:47:33;;;;;;;;;;;21.00;99.90;;;;;;5106407;28;19931;-79
2023/07/06 10:50:07;;;;;;;;;;;21.40;99.90;;;;;;5106652;28;19950;-81
2023/07/06 10:52:40;;;;;;;;;;;21.70;99.90;;;;;;5096014;28;19925;-79
2023/07/06 10:55:26;;;;;;;;;;;21.90;98.30;;;;;;5097395;28;19977;-79
2023/07/06 10:57:53;;;;;;;;;;;22.20;99.10;;;;;;5103396;28;20005;-79
2023/07/06 11:00:20;;;;;;;;;;;22.40;99.90;;;;;;5084270;28;19928;-79
2023/07/06 11:02:46;;;;;;;;;;;22.50;99.50;;;;;;5095744;28;19924;-79
2023/07/06 11:05:19;;;;;;;;;;;22.50;96.40;;;;;;5103434;28;19932;-79
2023/07/06 11:07:50;;;;;;;;;;;22.70;96.20;;;;;;5106049;28;19924;-79
2023/07/06 11:10:42;;;;;;;;;;;22.60;95.70;;;;;;5102077;28;19931;-79
2023/07/06 11:13:09;;;;;;;;;;;22.80;96.90;;;;;;5103229;28;19930;-79
2023/07/06 11:15:56;;;;;;;;;;;23.00;95.30;;;;;;5111979;28;19932;-78
2023/07/06 11:18:21;;;;;;;;;;;23.10;94.10;;;;;;5100886;28;19967;-79
2023/07/06 11:21:08;;;;;;;;;;;23.00;94.80;;;;;;5103582;28;19976;-78
2023/07/06 11:23:41;;;;;;;;;;;22.70;95.30;;;;;;5090389;28;19972;-78
2023/07/06 11:26:14;;;;;;;;;;;22.80;96.00;;;;;;5100491;28;20335;-77
2023/07/06 11:28:40;;;;;;;;;;;23.10;95.30;;;;;;5102065;28;19947;-78
2023/07/06 11:31:24;;;;;;;;;;;23.20;93.90;;;;;;5096914;28;20394;-78
2023/07/06 11:34:09;;;;;;;;;;;23.40;95.70;;;;;;5101446;28;20400;-79
2023/07/06 11:36:43;;;;;;;;;;;23.50;93.20;;;;;;5101127;28;20267;-78
2023/07/06 11:39:08;;;;;;;;;;;23.30;93.40;;;;;;5100288;28;19974;-79
2023/07/06 11:41:37;;;;;;;;;;;22.90;92.80;;;;;;5097803;28;19924;-78
2023/07/06 11:44:11;;;;;;;;;;;22.60;93.00;;;;;;5103596;28;20011;-78
2023/07/06 11:46:42;;;;;;;;;;;22.20;93.50;;;;;;5102341;28;19957;-78
2023/07/06 11:49:21;;;;;;;;;;;21.90;93.60;;;;;;5100183;28;20044;-78
2023/07/06 11:51:48;;;;;;;;;;;21.50;95.10;;;;;;5100751;28;19931;-77
2023/07/06 11:59:52;;;;;;;;;;;21.10;96.30;;;;;;5106367;28;19924;-78
2023/07/06 12:02:18;;;;;;;;;;;21.10;97.60;;;;;;5089646;28;19925;-78
2023/07/06 12:04:46;;;;;;;;;;;21.10;97.60;;;;;;5091916;28;19986;-77
2023/07/06 12:07:25;;;;;;;;;;;21.20;98.00;;;;;;5104546;28;19970;-78
2023/07/06 12:09:50;;;;;;;;;;;21.30;97.40;;;;;;5107180;28;20390;-77
2023/07/06 12:12:17;;;;;;;;;;;21.50;97.30;;;;;;5087218;28;19924;-79
2023/07/06 12:14:43;;;;;;;;;;;21.70;97.40;;;;;;5096319;28;19923;-78
2023/07/06 12:17:11;;;;;;;;;;;21.90;97.60;;;;;;5098046;28;19932;-78
2023/07/06 12:19:41;;;;;;;;;;;22.00;97.00;;;;;;5101441;28;19929;-79
2023/07/06 12:22:16;;;;;;;;;;;22.00;96.90;;;;;;5094825;28;19924;-78
2023/07/06 12:24:42;;;;;;;;;;;21.90;96.40;;;;;;5118806;27;19963;-80
2023/07/06 12:27:12;;;;;;;;;;;21.80;96.40;;;;;;5103638;28;19935;-79
2023/07/06 12:29:39;;;;;;;;;;;21.60;97.30;;;;;;5093411;28;19951;-78
2023/07/06 12:32:07;;;;;;;;;;;21.50;96.40;;;;;;5098859;28;19939;-78
2023/07/06 12:34:34;;;;;;;;;;;21.40;96.50;;;;;;5094791;28;19930;-79
2023/07/06 12:37:02;;;;;;;;;;;21.30;96.90;;;;;;5094501;28;20344;-78
2023/07/06 12:39:30;;;;;;;;;;;21.20;97.20;;;;;;5096392;28;19912;-79
2023/07/06 12:41:56;;;;;;;;;;;21.30;98.20;;;;;;5095957;28;20322;-78
2023/07/06 12:44:26;;;;;;;;;;;21.30;98.30;;;;;;5079222;28;19968;-78
2023/07/06 12:46:53;;;;;;;;;;;21.40;98.60;;;;;;5073322;28;19931;-77
2023/07/06 12:49:21;;;;;;;;;;;21.60;99.30;;;;;;5088800;28;19935;-79
2023/07/06 12:51:54;;;;;;;;;;;22.10;98.60;;;;;;5081253;28;19930;-78
2023/07/06 12:54:27;;;;;;;;;;;22.50;97.80;;;;;;5093115;28;19924;-78
2023/07/06 12:57:00;;;;;;;;;;;23.00;98.30;;;;;;5096366;28;19930;-77
2023/07/06 12:59:31;;;;;;;;;;;23.40;95.30;;;;;;5093633;28;20305;-79
2023/07/06 13:01:57;;;;;;;;;;;23.70;96.30;;;;;;5093676;28;19931;-78
2023/07/06 13:04:24;;;;;;;;;;;24.00;97.00;;;;;;5112627;28;20007;-81
2023/07/06 13:06:54;;;;;;;;;;;24.00;94.10;;;;;;5102110;28;20297;-78
2023/07/06 13:09:21;;;;;;;;;;;24.00;93.00;;;;;;5093981;28;19971;-79
2023/07/06 13:11:51;;;;;;;;;;;23.70;93.30;;;;;;5113725;27;20689;-80
2023/07/06 13:14:17;;;;;;;;;;;23.40;93.20;;;;;;5099346;28;19955;-79
2023/07/06 13:16:44;;;;;;;;;;;23.10;95.00;;;;;;5101971;28;19924;-79
2023/07/06 13:19:10;;;;;;;;;;;23.00;95.40;;;;;;5093403;28;19924;-79
2023/07/06 13:21:37;;;;;;;;;;;22.80;95.60;;;;;;5096611;28;20016;-79
2023/07/06 13:24:04;;;;;;;;;;;22.90;92.80;;;;;;5095730;28;19924;-78
2023/07/06 13:26:30;;;;;;;;;;;23.00;93.60;;;;;;5096353;28;19943;-79
2023/07/06 13:28:56;;;;;;;;;;;23.20;93.90;;;;;;5097488;28;20320;-78
2023/07/06 13:31:22;;;;;;;;;;;23.50;94.90;;;;;;5115783;28;20279;-78
2023/07/06 13:33:48;;;;;;;;;;;23.60;93.10;;;;;;5098466;28;20228;-79
2023/07/06 13:36:18;;;;;;;;;;;23.60;93.60;;;;;;5093456;28;19993;-79
2023/07/06 13:38:45;;;;;;;;;;;23.70;94.50;;;;;;5103738;28;19923;-77
2023/07/06 13:41:13;;;;;;;;;;;23.60;93.20;;;;;;5106541;28;19932;-78
2023/07/06 13:43:39;;;;;;;;;;;23.50;93.30;;;;;;5102451;28;19935;-79
2023/07/06 13:46:08;;;;;;;;;;;23.70;91.90;;;;;;5101229;28;19924;-79
2023/07/06 13:48:33;;;;;;;;;;;23.90;92.20;;;;;;5103362;28;20357;-79
2023/07/06 13:50:59;;;;;;;;;;;23.80;91.60;;;;;;5081714;28;19924;-79
2023/07/06 13:53:26;;;;;;;;;;;23.80;91.10;;;;;;5094151;28;19931;-80
2023/07/06 13:55:55;;;;;;;;;;;23.70;92.10;;;;;;5090974;28;20033;-78
2023/07/06 13:58:21;;;;;;;;;;;23.60;92.80;;;;;;5104651;28;19923;-78
2023/07/06 14:00:48;;;;;;;;;;;23.60;93.60;;;;;;5082998;28;19932;-78
2023/07/06 14:03:23;;;;;;;;;;;23.80;93.00;;;;;;5101227;28;19924;-78
2023/07/06 14:05:49;;;;;;;;;;;23.90;91.90;;;;;;5094627;28;19928;-78
2023/07/06 14:08:17;;;;;;;;;;;24.00;92.70;;;;;;5098901;28;19978;-79
2023/07/06 14:10:43;;;;;;;;;;;24.40;91.50;;;;;;5101651;28;19932;-78
2023/07/06 14:13:08;;;;;;;;;;;24.70;91.50;;;;;;5109501;27;19981;-79
2023/07/06 14:15:36;;;;;;;;;;;24.90;91.60;;;;;;5101834;27;19924;-78
2023/07/06 14:18:01;;;;;;;;;;;24.90;91.00;;;;;;5091396;28;20382;-77
2023/07/06 14:20:28;;;;;;;;;;;24.60;88.70;;;;;;5111716;27;19984;-77
2023/07/06 14:22:53;;;;;;;;;;;24.20;90.00;;;;;;5090050;28;19935;-78
2023/07/06 14:25:20;;;;;;;;;;;24.10;89.80;;;;;;5087273;28;20374;-77
2023/07/06 14:27:46;;;;;;;;;;;24.00;89.00;;;;;;5098379;28;19924;-78
2023/07/06 14:30:17;;;;;;;;;;;24.10;90.60;;;;;;5093583;28;20054;-77